Wetterstation Vordersexau
Wetterdaten: Woche 02.01.23 - 08.01.23 (KW1)
Datum Zeit Temp. A. Feuchte A. Luftdruck Regen Wind Richtung Taupunkt Windchill
02.01.2023 00:00 7,5 C 89 % 1016,0 hPa 0,0 l/m 0,0 km/h (0 Bft) N-NO 5,8 C 7,5 C
02.01.2023 01:00 7,5 C 90 % 1015,0 hPa 0,0 l/m 1,1 km/h (1 Bft) N-NO 6,0 C 7,5 C
02.01.2023 02:00 7,6 C 88 % 1015,0 hPa 0,0 l/m 1,1 km/h (1 Bft) N-NO 5,7 C 7,6 C
02.01.2023 03:00 6,7 C 91 % 1015,0 hPa 0,0 l/m 2,5 km/h (1 Bft) N 5,3 C 6,7 C
02.01.2023 04:00 7,7 C 88 % 1014,9 hPa 0,0 l/m 0,0 km/h (0 Bft) N 5,8 C 7,7 C
02.01.2023 05:00 7,7 C 87 % 1014,9 hPa 0,0 l/m 0,0 km/h (0 Bft) SO 5,7 C 7,7 C
02.01.2023 06:00 8,6 C 83 % 1014,9 hPa 0,0 l/m 2,5 km/h (1 Bft) O-SO 5,9 C 8,6 C
02.01.2023 07:00 8,7 C 81 % 1015,9 hPa 0,0 l/m 1,1 km/h (1 Bft) N 5,6 C 8,7 C
02.01.2023 08:00 8,6 C 81 % 1015,9 hPa 0,0 l/m 0,0 km/h (0 Bft) SO 5,5 C 8,6 C
02.01.2023 09:00 8,7 C 81 % 1015,9 hPa 0,0 l/m 5,0 km/h (1 Bft) SO 5,6 C 8,7 C
02.01.2023 10:00 13,0 C 62 % 1016,5 hPa 0,0 l/m 2,5 km/h (1 Bft) S-SW 5,9 C 13,0 C
02.01.2023 11:00 15,8 C 49 % 1017,2 hPa 0,0 l/m 7,2 km/h (2 Bft) W 5,1 C 15,4 C
02.01.2023 12:00 16,4 C 53 % 1017,2 hPa 0,0 l/m 14,8 km/h (3 Bft) SW 6,8 C 12,9 C
02.01.2023 13:00 16,2 C 51 % 1017,2 hPa 0,0 l/m 12,2 km/h (2 Bft) W-SW 6,1 C 13,6 C
02.01.2023 14:00 15,6 C 56 % 1018,3 hPa 0,0 l/m 9,7 km/h (2 Bft) W-SW 6,9 C 13,9 C
02.01.2023 15:00 14,2 C 65 % 1019,4 hPa 0,0 l/m 12,2 km/h (2 Bft) N 7,7 C 11,3 C
02.01.2023 16:00 12,1 C 82 % 1019,6 hPa 0,0 l/m 0,0 km/h (0 Bft) SW 9,1 C 12,1 C
02.01.2023 17:00 12,7 C 77 % 1020,6 hPa 0,0 l/m 11,2 km/h (2 Bft) W-SW 8,8 C 10,0 C
02.01.2023 18:00 12,6 C 79 % 1021,7 hPa 0,0 l/m 9,7 km/h (2 Bft) W-NW 9,1 C 10,6 C
02.01.2023 19:00 10,7 C 86 % 1022,9 hPa 0,0 l/m 2,5 km/h (1 Bft) N-NW 8,5 C 10,7 C
02.01.2023 20:00 10,1 C 89 % 1022,9 hPa 0,0 l/m 2,5 km/h (1 Bft) N 8,4 C 10,1 C
02.01.2023 21:00 9,8 C 91 % 1024,0 hPa 0,3 l/m 0,0 km/h (0 Bft) N 8,4 C 9,8 C
02.01.2023 22:00 9,1 C 95 % 1024,1 hPa 0,9 l/m 0,0 km/h (0 Bft) SO 8,3 C 9,1 C
02.01.2023 23:00 8,8 C 96 % 1025,1 hPa 0,0 l/m 1,1 km/h (1 Bft) N 8,2 C 8,8 C
03.01.2023 00:00 8,5 C 97 % 1026,2 hPa 0,0 l/m 0,0 km/h (0 Bft) N 8,1 C 8,5 C
03.01.2023 01:00 8,2 C 97 % 1025,2 hPa 0,0 l/m 0,0 km/h (0 Bft) N 7,8 C 8,2 C
03.01.2023 02:00 8,1 C 97 % 1025,2 hPa 0,0 l/m 0,0 km/h (0 Bft) N 7,7 C 8,1 C
03.01.2023 03:00 7,7 C 98 % 1026,3 hPa 0,0 l/m 0,0 km/h (0 Bft) N 7,4 C 7,7 C
03.01.2023 04:00 7,5 C 98 % 1026,3 hPa 0,0 l/m 0,0 km/h (0 Bft) N 7,2 C 7,5 C
03.01.2023 05:00 7,2 C 98 % 1026,3 hPa 0,0 l/m 0,0 km/h (0 Bft) N 6,9 C 7,2 C
03.01.2023 06:00 7,1 C 98 % 1026,3 hPa 0,0 l/m 0,0 km/h (0 Bft) N 6,8 C 7,1 C
03.01.2023 07:00 6,4 C 98 % 1026,4 hPa 0,0 l/m 0,0 km/h (0 Bft) N 6,1 C 6,4 C
03.01.2023 08:00 5,7 C 99 % 1026,5 hPa 0,0 l/m 0,0 km/h (0 Bft) N 5,6 C 5,7 C
03.01.2023 09:00 6,3 C 99 % 1027,4 hPa 0,0 l/m 0,0 km/h (0 Bft) N 6,2 C 6,3 C
03.01.2023 10:00 6,8 C 98 % 1027,4 hPa 0,0 l/m 0,0 km/h (0 Bft) N 6,5 C 6,8 C
03.01.2023 11:00 7,8 C 95 % 1028,3 hPa 0,0 l/m 0,0 km/h (0 Bft) O-SO 7,0 C 7,8 C
03.01.2023 12:00 8,8 C 90 % 1027,2 hPa 0,0 l/m 1,1 km/h (1 Bft) W 7,3 C 8,8 C
03.01.2023 13:00 10,9 C 84 % 1027,0 hPa 0,0 l/m 2,5 km/h (1 Bft) W-SW 8,3 C 10,9 C
03.01.2023 14:00 11,7 C 78 % 1026,9 hPa 0,0 l/m 2,5 km/h (1 Bft) SW 8,0 C 11,7 C
03.01.2023 15:00 11,7 C 75 % 1026,9 hPa 0,0 l/m 2,5 km/h (1 Bft) N 7,4 C 11,7 C
03.01.2023 16:00 11,3 C 76 % 1026,9 hPa 0,0 l/m 0,0 km/h (0 Bft) SW 7,2 C 11,3 C
03.01.2023 17:00 6,7 C 92 % 1027,4 hPa 0,0 l/m 1,1 km/h (1 Bft) O-SO 5,5 C 6,7 C
03.01.2023 18:00 5,4 C 95 % 1028,5 hPa 0,0 l/m 1,1 km/h (1 Bft) N 4,7 C 5,4 C
03.01.2023 19:00 4,5 C 96 % 1028,6 hPa 0,0 l/m 0,0 km/h (0 Bft) N 3,9 C 4,5 C
03.01.2023 20:00 4,0 C 96 % 1028,7 hPa 0,0 l/m 0,0 km/h (0 Bft) N 3,4 C 4,0 C
03.01.2023 21:00 3,6 C 97 % 1028,7 hPa 0,0 l/m 0,0 km/h (0 Bft) N 3,2 C 3,6 C
03.01.2023 22:00 3,1 C 96 % 1028,8 hPa 0,0 l/m 0,0 km/h (0 Bft) N 2,5 C 3,1 C
03.01.2023 23:00 2,0 C 97 % 1027,9 hPa 0,0 l/m 0,0 km/h (0 Bft) N 1,6 C 2,0 C
04.01.2023 00:00 1,0 C 98 % 1029,0 hPa 0,3 l/m 0,0 km/h (0 Bft) N 0,7 C 1,0 C
04.01.2023 01:00 0,6 C 98 % 1028,0 hPa 0,0 l/m 0,0 km/h (0 Bft) N 0,3 C 0,6 C
04.01.2023 02:00 1,2 C 99 % 1028,0 hPa 0,0 l/m 0,0 km/h (0 Bft) N 1,1 C 1,2 C
04.01.2023 03:00 1,3 C 99 % 1027,9 hPa 0,0 l/m 0,0 km/h (0 Bft) NO 1,2 C 1,3 C
04.01.2023 04:00 0,9 C 99 % 1028,0 hPa 0,0 l/m 3,6 km/h (1 Bft) N 0,8 C 0,9 C
04.01.2023 05:00 2,0 C 99 % 1026,8 hPa 0,0 l/m 0,0 km/h (0 Bft) SO 1,9 C 2,0 C
04.01.2023 06:00 3,6 C 98 % 1026,7 hPa 0,0 l/m 1,1 km/h (1 Bft) SW 3,3 C 3,6 C
04.01.2023 07:00 8,5 C 78 % 1026,2 hPa 0,0 l/m 6,1 km/h (2 Bft) S 4,9 C 8,5 C
04.01.2023 08:00 9,4 C 74 % 1026,1 hPa 0,0 l/m 12,2 km/h (2 Bft) W-SW 5,0 C 5,7 C
04.01.2023 09:00 8,8 C 78 % 1026,1 hPa 0,0 l/m 5,0 km/h (1 Bft) S-SO 5,2 C 8,8 C
04.01.2023 10:00 8,9 C 79 % 1026,1 hPa 0,0 l/m 9,7 km/h (2 Bft) S-SW 5,5 C 6,6 C
04.01.2023 11:00 9,6 C 73 % 1026,1 hPa 0,0 l/m 14,8 km/h (3 Bft) SW 5,0 C 4,7 C
04.01.2023 12:00 10,0 C 70 % 1025,0 hPa 0,0 l/m 9,7 km/h (2 Bft) SW 4,8 C 7,8 C
04.01.2023 13:00 10,0 C 68 % 1024,0 hPa 0,0 l/m 13,3 km/h (3 Bft) SW 4,4 C 5,9 C
04.01.2023 14:00 9,8 C 76 % 1024,0 hPa 0,0 l/m 13,3 km/h (3 Bft) S-SW 5,8 C 5,6 C
04.01.2023 15:00 10,3 C 75 % 1023,9 hPa 0,0 l/m 15,8 km/h (3 Bft) S 6,1 C 5,2 C
04.01.2023 16:00 10,0 C 77 % 1024,0 hPa 0,0 l/m 9,7 km/h (2 Bft) W-SW 6,2 C 7,8 C
04.01.2023 17:00 10,2 C 80 % 1023,9 hPa 0,0 l/m 12,2 km/h (2 Bft) S-SW 6,9 C 6,6 C
04.01.2023 18:00 10,5 C 81 % 1022,9 hPa 0,0 l/m 17,3 km/h (3 Bft) W-SW 7,4 C 4,9 C
04.01.2023 19:00 10,7 C 81 % 1022,9 hPa 0,0 l/m 9,7 km/h (2 Bft) W-SW 7,6 C 8,5 C
04.01.2023 20:00 10,9 C 82 % 1022,8 hPa 0,0 l/m 17,3 km/h (3 Bft) SW 7,9 C 5,4 C
04.01.2023 21:00 10,9 C 84 % 1022,8 hPa 0,0 l/m 18,4 km/h (3 Bft) W-SW 8,3 C 5,0 C
04.01.2023 22:00 11,0 C 84 % 1021,8 hPa 0,0 l/m 18,4 km/h (3 Bft) SW 8,4 C 5,1 C
04.01.2023 23:00 10,8 C 85 % 1021,8 hPa 0,0 l/m 12,2 km/h (2 Bft) W-SW 8,4 C 7,3 C
05.01.2023 00:00 10,8 C 86 % 1021,8 hPa 0,0 l/m 8,6 km/h (2 Bft) SW 8,6 C 9,3 C
05.01.2023 01:00 11,1 C 85 % 1021,8 hPa 0,0 l/m 13,3 km/h (3 Bft) W-SW 8,7 C 7,2 C
05.01.2023 02:00 10,9 C 87 % 1020,8 hPa 0,0 l/m 18,4 km/h (3 Bft) W-SW 8,8 C 5,0 C
05.01.2023 03:00 10,9 C 87 % 1020,8 hPa 0,0 l/m 12,2 km/h (2 Bft) SW 8,8 C 7,5 C
05.01.2023 04:00 10,9 C 87 % 1020,8 hPa 0,0 l/m 13,3 km/h (3 Bft) S 8,8 C 6,9 C
05.01.2023 05:00 11,0 C 88 % 1020,8 hPa 0,0 l/m 14,8 km/h (3 Bft) W-SW 9,1 C 6,4 C
05.01.2023 06:00 10,9 C 88 % 1020,8 hPa 0,0 l/m 7,2 km/h (2 Bft) SW 9,0 C 10,3 C
05.01.2023 07:00 11,1 C 88 % 1020,8 hPa 0,0 l/m 12,2 km/h (2 Bft) W-SW 9,2 C 7,7 C
05.01.2023 08:00 11,1 C 89 % 1021,8 hPa 0,0 l/m 17,3 km/h (3 Bft) W-SW 9,4 C 5,6 C
05.01.2023 09:00 11,3 C 89 % 1021,8 hPa 0,0 l/m 9,7 km/h (2 Bft) W-SW 9,6 C 9,2 C
05.01.2023 10:00 11,0 C 92 % 1022,8 hPa 0,0 l/m 6,1 km/h (2 Bft) W-SW 9,8 C 11,0 C
05.01.2023 11:00 12,2 C 86 % 1022,7 hPa 0,0 l/m 3,6 km/h (1 Bft) W-SW 9,9 C 12,2 C
05.01.2023 12:00 12,7 C 84 % 1021,6 hPa 0,0 l/m 5,0 km/h (1 Bft) W 10,1 C 12,7 C
05.01.2023 13:00 13,1 C 85 % 1021,6 hPa 0,0 l/m 11,2 km/h (2 Bft) W-SW 10,6 C 10,4 C
05.01.2023 14:00 13,0 C 84 % 1021,6 hPa 0,0 l/m 8,6 km/h (2 Bft) W-SW 10,4 C 11,7 C
05.01.2023 15:00 12,6 C 85 % 1021,7 hPa 0,0 l/m 7,2 km/h (2 Bft) SW 10,1 C 12,1 C
05.01.2023 16:00 12,3 C 85 % 1021,7 hPa 0,0 l/m 7,2 km/h (2 Bft) SW 9,9 C 11,8 C
05.01.2023 17:00 12,2 C 86 % 1021,7 hPa 0,0 l/m 9,7 km/h (2 Bft) SW 9,9 C 10,2 C
05.01.2023 18:00 12,2 C 82 % 1021,7 hPa 0,0 l/m 2,5 km/h (1 Bft) S-SW 9,2 C 12,2 C
05.01.2023 19:00 12,2 C 80 % 1021,7 hPa 0,0 l/m 9,7 km/h (2 Bft) N 8,9 C 10,2 C
Min-Datum _ 04.01.23 02.01.23 02.01.23 - 02.01.23 - 04.01.23 04.01.23
_ Min-Zeit 01:47 11:47 06:47 - 00:47 - 01:47 01:47
Minimum _ 0,6 C 49 % 1014,9 hPa - 0,0 km/h (0 Bft) - 0,3 C 0,6 C
Max-Datum _ 02.01.23 03.01.23 04.01.23 02.01.23 04.01.23 - 05.01.23 02.01.23
_ Max-Zeit 12:47 08:47 00:47 22:47 21:47 - 13:47 11:47
Maximum _ 16,4 C 99 % 1029,0 hPa 0,9 l/m 18,4 km/h
W-SW (3 Bft)
- 10,6 C 15,4 C
Durchschnitt _ 9,2 C 86 % 1023,1 hPa #1,5 l/m 5,7 km/h (1 Bft) W-SW 6,7 C 7,8 C
www.sexauwetter.de